sensor_id;sensor_type;location;lat;lon;timestamp;P1;durP1;ratioP1;P2;durP2;ratioP2
86241;SDS011;76911;51.784;4.658;2024-03-23T00:55:40;4.66;;;3.81;;
86241;SDS011;76911;51.784;4.658;2024-03-23T00:58:06;5.61;;;4.50;;
86241;SDS011;76911;51.784;4.658;2024-03-23T01:00:32;5.27;;;4.36;;
86241;SDS011;76911;51.784;4.658;2024-03-23T01:02:57;5.47;;;4.55;;
86241;SDS011;76911;51.784;4.658;2024-03-23T01:05:23;6.42;;;5.24;;
86241;SDS011;76911;51.784;4.658;2024-03-23T01:07:48;5.96;;;5.01;;
86241;SDS011;76911;51.784;4.658;2024-03-23T01:10:14;5.57;;;4.77;;
86241;SDS011;76911;51.784;4.658;2024-03-23T01:12:40;5.86;;;5.04;;
86241;SDS011;76911;51.784;4.658;2024-03-23T01:15:05;6.48;;;5.53;;
86241;SDS011;76911;51.784;4.658;2024-03-23T01:17:31;6.21;;;5.39;;
86241;SDS011;76911;51.784;4.658;2024-03-23T01:19:57;6.64;;;5.84;;
86241;SDS011;76911;51.784;4.658;2024-03-23T01:22:22;6.50;;;5.84;;
86241;SDS011;76911;51.784;4.658;2024-03-23T01:24:48;6.05;;;5.55;;
86241;SDS011;76911;51.784;4.658;2024-03-23T01:27:13;6.38;;;5.91;;
86241;SDS011;76911;51.784;4.658;2024-03-23T01:29:39;6.66;;;6.26;;
86241;SDS011;76911;51.784;4.658;2024-03-23T01:32:05;7.32;;;6.84;;
86241;SDS011;76911;51.784;4.658;2024-03-23T01:34:32;7.69;;;7.28;;
86241;SDS011;76911;51.784;4.658;2024-03-23T01:36:57;7.78;;;7.46;;
86241;SDS011;76911;51.784;4.658;2024-03-23T01:39:23;7.76;;;7.44;;
86241;SDS011;76911;51.784;4.658;2024-03-23T01:41:49;8.19;;;7.82;;
86241;SDS011;76911;51.784;4.658;2024-03-23T01:44:15;8.07;;;7.75;;
86241;SDS011;76911;51.784;4.658;2024-03-23T01:46:41;8.25;;;8.01;;
86241;SDS011;76911;51.784;4.658;2024-03-23T01:49:07;8.51;;;8.21;;
86241;SDS011;76911;51.784;4.658;2024-03-23T01:51:33;8.02;;;7.68;;
86241;SDS011;76911;51.784;4.658;2024-03-23T01:54:01;8.83;;;8.36;;
86241;SDS011;76911;51.784;4.658;2024-03-23T01:56:29;8.47;;;8.11;;
86241;SDS011;76911;51.784;4.658;2024-03-23T01:59:00;8.26;;;7.84;;
86241;SDS011;76911;51.784;4.658;2024-03-23T02:01:29;8.66;;;8.26;;
86241;SDS011;76911;51.784;4.658;2024-03-23T02:03:55;8.27;;;7.87;;
86241;SDS011;76911;51.784;4.658;2024-03-23T02:06:21;8.30;;;7.99;;
86241;SDS011;76911;51.784;4.658;2024-03-23T02:08:47;8.47;;;8.10;;
86241;SDS011;76911;51.784;4.658;2024-03-23T02:11:13;8.68;;;8.28;;
86241;SDS011;76911;51.784;4.658;2024-03-23T02:13:39;8.60;;;8.20;;
86241;SDS011;76911;51.784;4.658;2024-03-23T02:16:05;8.17;;;7.91;;
86241;SDS011;76911;51.784;4.658;2024-03-23T02:18:31;8.48;;;8.17;;
86241;SDS011;76911;51.784;4.658;2024-03-23T02:20:57;8.21;;;7.91;;
86241;SDS011;76911;51.784;4.658;2024-03-23T02:23:23;7.72;;;7.54;;
86241;SDS011;76911;51.784;4.658;2024-03-23T02:25:49;7.88;;;7.72;;
86241;SDS011;76911;51.784;4.658;2024-03-23T02:28:15;8.52;;;8.12;;
86241;SDS011;76911;51.784;4.658;2024-03-23T02:30:42;8.01;;;7.60;;
86241;SDS011;76911;51.784;4.658;2024-03-23T02:33:07;7.48;;;7.20;;
86241;SDS011;76911;51.784;4.658;2024-03-23T02:35:33;8.01;;;7.56;;
86241;SDS011;76911;51.784;4.658;2024-03-23T02:37:59;7.80;;;7.36;;
86241;SDS011;76911;51.784;4.658;2024-03-23T02:40:24;7.87;;;7.45;;
86241;SDS011;76911;51.784;4.658;2024-03-23T02:42:50;8.01;;;7.53;;
86241;SDS011;76911;51.784;4.658;2024-03-23T02:45:15;8.21;;;7.72;;
86241;SDS011;76911;51.784;4.658;2024-03-23T02:47:41;7.74;;;7.35;;
86241;SDS011;76911;51.784;4.658;2024-03-23T02:50:07;7.99;;;7.64;;
86241;SDS011;76911;51.784;4.658;2024-03-23T02:52:33;7.59;;;7.26;;
86241;SDS011;76911;51.784;4.658;2024-03-23T02:54:59;7.58;;;7.28;;
86241;SDS011;76911;51.784;4.658;2024-03-23T02:57:24;7.69;;;7.41;;
86241;SDS011;76911;51.784;4.658;2024-03-23T02:59:50;7.46;;;7.19;;
86241;SDS011;76911;51.784;4.658;2024-03-23T03:02:16;7.00;;;6.77;;
86241;SDS011;76911;51.784;4.658;2024-03-23T03:04:41;6.49;;;6.29;;
86241;SDS011;76911;51.784;4.658;2024-03-23T03:07:07;6.01;;;5.66;;
86241;SDS011;76911;51.784;4.658;2024-03-23T03:09:32;6.20;;;5.70;;
86241;SDS011;76911;51.784;4.658;2024-03-23T03:12:00;6.05;;;5.56;;
86241;SDS011;76911;51.784;4.658;2024-03-23T03:14:28;6.06;;;5.48;;
86241;SDS011;76911;51.784;4.658;2024-03-23T03:16:54;5.79;;;5.21;;
86241;SDS011;76911;51.784;4.658;2024-03-23T03:19:19;5.81;;;5.08;;
86241;SDS011;76911;51.784;4.658;2024-03-23T03:21:45;5.64;;;4.81;;
86241;SDS011;76911;51.784;4.658;2024-03-23T03:24:10;5.13;;;4.31;;
86241;SDS011;76911;51.784;4.658;2024-03-23T03:26:36;5.81;;;4.75;;
86241;SDS011;76911;51.784;4.658;2024-03-23T03:29:02;5.64;;;4.57;;
86241;SDS011;76911;51.784;4.658;2024-03-23T03:31:27;5.61;;;4.50;;
86241;SDS011;76911;51.784;4.658;2024-03-23T03:33:53;5.43;;;4.34;;
86241;SDS011;76911;51.784;4.658;2024-03-23T03:36:18;6.07;;;4.86;;
86241;SDS011;76911;51.784;4.658;2024-03-23T03:38:44;5.46;;;4.30;;
86241;SDS011;76911;51.784;4.658;2024-03-23T03:41:10;5.02;;;3.95;;
86241;SDS011;76911;51.784;4.658;2024-03-23T03:43:36;5.19;;;4.12;;
86241;SDS011;76911;51.784;4.658;2024-03-23T03:46:01;5.53;;;4.34;;
86241;SDS011;76911;51.784;4.658;2024-03-23T03:48:27;6.08;;;4.61;;
86241;SDS011;76911;51.784;4.658;2024-03-23T03:50:53;6.69;;;4.91;;
86241;SDS011;76911;51.784;4.658;2024-03-23T03:53:19;6.22;;;4.58;;
86241;SDS011;76911;51.784;4.658;2024-03-23T03:55:45;5.67;;;4.25;;
86241;SDS011;76911;51.784;4.658;2024-03-23T03:58:10;5.90;;;4.42;;
86241;SDS011;76911;51.784;4.658;2024-03-23T04:00:36;5.66;;;4.17;;
86241;SDS011;76911;51.784;4.658;2024-03-23T04:03:02;5.73;;;4.28;;
86241;SDS011;76911;51.784;4.658;2024-03-23T04:05:27;5.80;;;4.38;;
86241;SDS011;76911;51.784;4.658;2024-03-23T04:07:53;5.06;;;3.88;;
86241;SDS011;76911;51.784;4.658;2024-03-23T04:10:19;4.94;;;3.81;;
86241;SDS011;76911;51.784;4.658;2024-03-23T04:12:45;5.84;;;4.41;;
86241;SDS011;76911;51.784;4.658;2024-03-23T04:15:11;5.12;;;3.88;;
86241;SDS011;76911;51.784;4.658;2024-03-23T04:17:36;5.68;;;4.33;;
86241;SDS011;76911;51.784;4.658;2024-03-23T04:20:02;5.39;;;4.09;;
86241;SDS011;76911;51.784;4.658;2024-03-23T04:22:29;5.32;;;4.08;;
86241;SDS011;76911;51.784;4.658;2024-03-23T04:24:55;5.01;;;3.87;;
86241;SDS011;76911;51.784;4.658;2024-03-23T04:27:22;4.73;;;3.68;;
86241;SDS011;76911;51.784;4.658;2024-03-23T04:29:51;4.73;;;3.62;;
86241;SDS011;76911;51.784;4.658;2024-03-23T04:32:20;4.93;;;3.74;;
86241;SDS011;76911;51.784;4.658;2024-03-23T04:34:46;4.89;;;3.68;;
86241;SDS011;76911;51.784;4.658;2024-03-23T04:37:11;5.06;;;3.78;;
86241;SDS011;76911;51.784;4.658;2024-03-23T04:39:37;4.70;;;3.57;;
86241;SDS011;76911;51.784;4.658;2024-03-23T04:42:03;4.90;;;3.74;;
86241;SDS011;76911;51.784;4.658;2024-03-23T04:44:29;4.59;;;3.51;;
86241;SDS011;76911;51.784;4.658;2024-03-23T04:46:56;4.38;;;3.35;;
86241;SDS011;76911;51.784;4.658;2024-03-23T04:49:22;4.83;;;3.67;;
86241;SDS011;76911;51.784;4.658;2024-03-23T04:51:47;4.60;;;3.55;;
86241;SDS011;76911;51.784;4.658;2024-03-23T04:54:13;4.32;;;3.36;;
86241;SDS011;76911;51.784;4.658;2024-03-23T04:56:39;4.57;;;3.52;;
86241;SDS011;76911;51.784;4.658;2024-03-23T04:59:04;4.84;;;3.76;;
86241;SDS011;76911;51.784;4.658;2024-03-23T05:01:30;4.81;;;3.69;;
86241;SDS011;76911;51.784;4.658;2024-03-23T05:03:56;5.10;;;3.84;;
86241;SDS011;76911;51.784;4.658;2024-03-23T05:06:23;5.12;;;3.87;;
86241;SDS011;76911;51.784;4.658;2024-03-23T05:08:51;4.97;;;3.76;;
86241;SDS011;76911;51.784;4.658;2024-03-23T05:11:17;5.11;;;3.93;;
86241;SDS011;76911;51.784;4.658;2024-03-23T05:13:43;4.74;;;3.65;;
86241;SDS011;76911;51.784;4.658;2024-03-23T05:16:09;5.01;;;3.88;;
86241;SDS011;76911;51.784;4.658;2024-03-23T05:18:34;4.41;;;3.42;;
86241;SDS011;76911;51.784;4.658;2024-03-23T05:21:00;4.94;;;3.81;;
86241;SDS011;76911;51.784;4.658;2024-03-23T05:23:27;4.68;;;3.57;;
86241;SDS011;76911;51.784;4.658;2024-03-23T05:25:53;5.82;;;4.42;;
86241;SDS011;76911;51.784;4.658;2024-03-23T05:28:20;5.63;;;4.36;;
86241;SDS011;76911;51.784;4.658;2024-03-23T05:30:52;5.42;;;4.16;;
86241;SDS011;76911;51.784;4.658;2024-03-23T05:33:18;5.66;;;4.45;;
86241;SDS011;76911;51.784;4.658;2024-03-23T05:35:45;5.58;;;4.33;;
86241;SDS011;76911;51.784;4.658;2024-03-23T05:38:11;5.80;;;4.51;;
86241;SDS011;76911;51.784;4.658;2024-03-23T05:40:37;5.69;;;4.44;;
86241;SDS011;76911;51.784;4.658;2024-03-23T05:43:05;6.30;;;4.88;;
86241;SDS011;76911;51.784;4.658;2024-03-23T05:45:34;5.86;;;4.46;;
86241;SDS011;76911;51.784;4.658;2024-03-23T05:47:59;6.07;;;4.66;;
86241;SDS011;76911;51.784;4.658;2024-03-23T05:50:25;6.60;;;5.04;;
86241;SDS011;76911;51.784;4.658;2024-03-23T05:52:50;6.55;;;4.91;;
86241;SDS011;76911;51.784;4.658;2024-03-23T05:55:16;7.28;;;5.36;;
86241;SDS011;76911;51.784;4.658;2024-03-23T05:57:41;6.97;;;5.18;;
86241;SDS011;76911;51.784;4.658;2024-03-23T06:00:07;6.85;;;5.02;;
86241;SDS011;76911;51.784;4.658;2024-03-23T06:02:40;6.95;;;5.19;;
86241;SDS011;76911;51.784;4.658;2024-03-23T06:05:07;7.12;;;5.52;;
86241;SDS011;76911;51.784;4.658;2024-03-23T06:07:32;6.66;;;5.16;;
86241;SDS011;76911;51.784;4.658;2024-03-23T06:09:58;6.43;;;5.00;;
86241;SDS011;76911;51.784;4.658;2024-03-23T06:12:24;7.03;;;5.67;;
86241;SDS011;76911;51.784;4.658;2024-03-23T06:14:49;6.66;;;5.34;;
86241;SDS011;76911;51.784;4.658;2024-03-23T06:17:14;6.67;;;5.32;;
86241;SDS011;76911;51.784;4.658;2024-03-23T06:19:40;6.76;;;5.45;;
86241;SDS011;76911;51.784;4.658;2024-03-23T06:22:06;6.08;;;4.93;;
86241;SDS011;76911;51.784;4.658;2024-03-23T06:24:31;6.19;;;5.16;;
86241;SDS011;76911;51.784;4.658;2024-03-23T06:26:57;5.95;;;4.92;;
86241;SDS011;76911;51.784;4.658;2024-03-23T06:29:22;5.91;;;5.00;;
86241;SDS011;76911;51.784;4.658;2024-03-23T06:31:54;5.18;;;4.54;;
86241;SDS011;76911;51.784;4.658;2024-03-23T06:34:20;5.51;;;4.79;;
86241;SDS011;76911;51.784;4.658;2024-03-23T06:36:47;5.09;;;4.53;;
86241;SDS011;76911;51.784;4.658;2024-03-23T06:39:12;5.85;;;4.88;;
86241;SDS011;76911;51.784;4.658;2024-03-23T06:41:41;5.51;;;4.48;;
86241;SDS011;76911;51.784;4.658;2024-03-23T06:44:07;5.30;;;4.32;;
86241;SDS011;76911;51.784;4.658;2024-03-23T06:46:32;5.71;;;4.74;;
86241;SDS011;76911;51.784;4.658;2024-03-23T06:48:58;4.76;;;3.92;;
86241;SDS011;76911;51.784;4.658;2024-03-23T06:51:23;5.25;;;4.24;;
86241;SDS011;76911;51.784;4.658;2024-03-23T06:53:49;5.54;;;4.44;;
86241;SDS011;76911;51.784;4.658;2024-03-23T06:56:15;6.33;;;4.94;;
86241;SDS011;76911;51.784;4.658;2024-03-23T06:58:40;6.07;;;4.77;;
86241;SDS011;76911;51.784;4.658;2024-03-23T07:01:06;5.43;;;4.23;;
86241;SDS011;76911;51.784;4.658;2024-03-23T07:03:32;5.80;;;4.40;;
86241;SDS011;76911;51.784;4.658;2024-03-23T07:05:58;6.36;;;4.74;;
86241;SDS011;76911;51.784;4.658;2024-03-23T07:08:23;5.53;;;4.18;;
86241;SDS011;76911;51.784;4.658;2024-03-23T07:10:49;5.36;;;4.12;;
86241;SDS011;76911;51.784;4.658;2024-03-23T07:13:14;5.06;;;3.88;;
86241;SDS011;76911;51.784;4.658;2024-03-23T07:15:40;5.10;;;3.88;;
86241;SDS011;76911;51.784;4.658;2024-03-23T07:18:05;5.72;;;4.30;;
86241;SDS011;76911;51.784;4.658;2024-03-23T07:20:31;6.71;;;4.94;;
86241;SDS011;76911;51.784;4.658;2024-03-23T07:22:56;6.11;;;4.47;;
86241;SDS011;76911;51.784;4.658;2024-03-23T07:25:22;6.10;;;4.42;;
86241;SDS011;76911;51.784;4.658;2024-03-23T07:27:48;6.50;;;4.65;;
86241;SDS011;76911;51.784;4.658;2024-03-23T07:30:14;6.87;;;4.87;;
86241;SDS011;76911;51.784;4.658;2024-03-23T07:32:39;7.04;;;5.12;;
86241;SDS011;76911;51.784;4.658;2024-03-23T07:35:05;5.78;;;4.28;;
86241;SDS011;76911;51.784;4.658;2024-03-23T07:37:30;6.38;;;4.73;;
86241;SDS011;76911;51.784;4.658;2024-03-23T07:39:56;5.71;;;4.32;;
86241;SDS011;76911;51.784;4.658;2024-03-23T07:42:22;5.15;;;3.88;;
86241;SDS011;76911;51.784;4.658;2024-03-23T07:44:48;5.45;;;4.10;;
86241;SDS011;76911;51.784;4.658;2024-03-23T07:47:14;5.99;;;4.39;;
86241;SDS011;76911;51.784;4.658;2024-03-23T07:49:40;6.51;;;4.73;;
86241;SDS011;76911;51.784;4.658;2024-03-23T07:52:05;6.07;;;4.63;;
86241;SDS011;76911;51.784;4.658;2024-03-23T07:54:31;5.74;;;4.39;;
86241;SDS011;76911;51.784;4.658;2024-03-23T07:56:57;5.94;;;4.66;;
86241;SDS011;76911;51.784;4.658;2024-03-23T07:59:22;4.87;;;3.84;;
86241;SDS011;76911;51.784;4.658;2024-03-23T08:01:47;5.59;;;4.35;;
86241;SDS011;76911;51.784;4.658;2024-03-23T08:04:13;5.97;;;4.42;;
86241;SDS011;76911;51.784;4.658;2024-03-23T08:06:38;5.56;;;4.13;;
86241;SDS011;76911;51.784;4.658;2024-03-23T08:09:04;6.17;;;4.52;;
86241;SDS011;76911;51.784;4.658;2024-03-23T08:11:30;5.77;;;4.32;;
86241;SDS011;76911;51.784;4.658;2024-03-23T08:13:57;5.64;;;4.25;;
86241;SDS011;76911;51.784;4.658;2024-03-23T08:16:23;5.38;;;3.99;;
86241;SDS011;76911;51.784;4.658;2024-03-23T08:18:51;5.62;;;4.13;;
86241;SDS011;76911;51.784;4.658;2024-03-23T08:21:18;4.90;;;3.69;;
86241;SDS011;76911;51.784;4.658;2024-03-23T08:23:43;5.28;;;3.98;;
86241;SDS011;76911;51.784;4.658;2024-03-23T08:26:10;5.51;;;4.05;;
86241;SDS011;76911;51.784;4.658;2024-03-23T08:28:37;5.77;;;4.20;;
86241;SDS011;76911;51.784;4.658;2024-03-23T08:31:07;5.40;;;3.96;;
86241;SDS011;76911;51.784;4.658;2024-03-23T08:33:35;6.00;;;4.37;;
86241;SDS011;76911;51.784;4.658;2024-03-23T08:36:03;5.86;;;4.32;;
86241;SDS011;76911;51.784;4.658;2024-03-23T08:38:30;5.31;;;4.06;;
86241;SDS011;76911;51.784;4.658;2024-03-23T08:41:00;5.61;;;4.40;;
86241;SDS011;76911;51.784;4.658;2024-03-23T08:43:28;4.65;;;3.77;;
86241;SDS011;76911;51.784;4.658;2024-03-23T08:46:04;4.58;;;3.64;;
86241;SDS011;76911;51.784;4.658;2024-03-23T08:48:34;4.97;;;3.94;;
86241;SDS011;76911;51.784;4.658;2024-03-23T08:53:27;5.21;;;4.06;;
86241;SDS011;76911;51.784;4.658;2024-03-23T08:55:54;5.25;;;3.95;;
86241;SDS011;76911;51.784;4.658;2024-03-23T08:58:20;5.97;;;4.38;;
86241;SDS011;76911;51.784;4.658;2024-03-23T09:00:46;5.76;;;4.22;;
86241;SDS011;76911;51.784;4.658;2024-03-23T09:03:12;5.90;;;4.33;;
86241;SDS011;76911;51.784;4.658;2024-03-23T09:05:41;5.30;;;3.92;;
86241;SDS011;76911;51.784;4.658;2024-03-23T09:08:06;5.47;;;4.12;;
86241;SDS011;76911;51.784;4.658;2024-03-23T09:10:39;5.06;;;3.77;;
86241;SDS011;76911;51.784;4.658;2024-03-23T09:13:05;5.67;;;4.24;;
86241;SDS011;76911;51.784;4.658;2024-03-23T09:15:44;5.82;;;4.33;;
86241;SDS011;76911;51.784;4.658;2024-03-23T09:18:12;5.77;;;4.31;;
86241;SDS011;76911;51.784;4.658;2024-03-23T09:20:37;5.23;;;3.96;;
86241;SDS011;76911;51.784;4.658;2024-03-23T09:23:03;5.13;;;3.84;;
86241;SDS011;76911;51.784;4.658;2024-03-23T09:25:28;6.00;;;4.47;;
86241;SDS011;76911;51.784;4.658;2024-03-23T09:27:54;5.93;;;4.66;;
86241;SDS011;76911;51.784;4.658;2024-03-23T09:30:19;5.02;;;4.02;;
86241;SDS011;76911;51.784;4.658;2024-03-23T09:32:45;4.71;;;3.83;;
86241;SDS011;76911;51.784;4.658;2024-03-23T09:35:10;4.62;;;3.79;;
86241;SDS011;76911;51.784;4.658;2024-03-23T09:37:37;4.62;;;3.67;;
86241;SDS011;76911;51.784;4.658;2024-03-23T09:40:05;4.98;;;3.93;;
86241;SDS011;76911;51.784;4.658;2024-03-23T09:42:37;5.18;;;3.97;;
86241;SDS011;76911;51.784;4.658;2024-03-23T09:45:04;5.57;;;4.20;;
86241;SDS011;76911;51.784;4.658;2024-03-23T09:47:32;7.99;;;6.46;;
86241;SDS011;76911;51.784;4.658;2024-03-23T09:49:59;6.31;;;5.36;;
86241;SDS011;76911;51.784;4.658;2024-03-23T09:52:26;24.69;;;18.42;;
86241;SDS011;76911;51.784;4.658;2024-03-23T09:54:51;8.00;;;6.41;;
86241;SDS011;76911;51.784;4.658;2024-03-23T09:57:17;4.87;;;4.16;;
86241;SDS011;76911;51.784;4.658;2024-03-23T09:59:42;3.69;;;2.98;;
86241;SDS011;76911;51.784;4.658;2024-03-23T10:02:08;4.95;;;3.74;;
86241;SDS011;76911;51.784;4.658;2024-03-23T10:07:14;5.14;;;3.74;;
86241;SDS011;76911;51.784;4.658;2024-03-23T10:09:42;5.56;;;4.02;;
86241;SDS011;76911;51.784;4.658;2024-03-23T10:12:11;5.27;;;3.82;;
86241;SDS011;76911;51.784;4.658;2024-03-23T10:14:41;4.76;;;3.43;;
86241;SDS011;76911;51.784;4.658;2024-03-23T10:17:14;5.32;;;3.75;;
86241;SDS011;76911;51.784;4.658;2024-03-23T10:19:43;5.08;;;3.54;;
86241;SDS011;76911;51.784;4.658;2024-03-23T10:22:36;5.82;;;4.02;;
86241;SDS011;76911;51.784;4.658;2024-03-23T10:25:08;5.75;;;3.92;;
86241;SDS011;76911;51.784;4.658;2024-03-23T10:27:35;5.38;;;3.73;;
86241;SDS011;76911;51.784;4.658;2024-03-23T10:30:07;5.75;;;3.99;;
86241;SDS011;76911;51.784;4.658;2024-03-23T10:32:37;5.62;;;3.97;;
86241;SDS011;76911;51.784;4.658;2024-03-23T10:35:24;6.13;;;4.43;;
86241;SDS011;76911;51.784;4.658;2024-03-23T10:37:49;5.49;;;4.08;;
86241;SDS011;76911;51.784;4.658;2024-03-23T10:40:16;6.22;;;4.46;;
86241;SDS011;76911;51.784;4.658;2024-03-23T10:42:43;5.54;;;4.06;;
86241;SDS011;76911;51.784;4.658;2024-03-23T10:45:10;6.57;;;4.93;;
86241;SDS011;76911;51.784;4.658;2024-03-23T10:47:36;5.06;;;3.86;;
86241;SDS011;76911;51.784;4.658;2024-03-23T10:50:06;5.07;;;3.80;;
86241;SDS011;76911;51.784;4.658;2024-03-23T10:52:34;4.93;;;3.54;;
86241;SDS011;76911;51.784;4.658;2024-03-23T10:55:02;5.53;;;3.95;;
86241;SDS011;76911;51.784;4.658;2024-03-23T10:57:34;5.65;;;4.01;;
86241;SDS011;76911;51.784;4.658;2024-03-23T11:00:06;5.54;;;3.95;;
86241;SDS011;76911;51.784;4.658;2024-03-23T11:02:33;6.35;;;4.50;;
86241;SDS011;76911;51.784;4.658;2024-03-23T11:04:59;6.41;;;4.57;;
86241;SDS011;76911;51.784;4.658;2024-03-23T11:07:28;6.02;;;4.26;;
86241;SDS011;76911;51.784;4.658;2024-03-23T11:09:55;5.74;;;4.07;;
86241;SDS011;76911;51.784;4.658;2024-03-23T11:20:46;5.77;;;4.00;;
86241;SDS011;76911;51.784;4.658;2024-03-23T11:23:27;5.32;;;3.70;;
86241;SDS011;76911;51.784;4.658;2024-03-23T11:25:53;6.14;;;4.19;;
86241;SDS011;76911;51.784;4.658;2024-03-23T11:28:19;6.39;;;4.37;;
86241;SDS011;76911;51.784;4.658;2024-03-23T11:30:44;6.29;;;4.36;;
86241;SDS011;76911;51.784;4.658;2024-03-23T11:33:10;7.02;;;4.98;;
86241;SDS011;76911;51.784;4.658;2024-03-23T11:35:38;6.54;;;4.75;;
86241;SDS011;76911;51.784;4.658;2024-03-23T11:40:41;4.48;;;3.26;;
86241;SDS011;76911;51.784;4.658;2024-03-23T11:43:09;9.01;;;6.53;;
86241;SDS011;76911;51.784;4.658;2024-03-23T11:50:40;4.30;;;3.27;;
86241;SDS011;76911;51.784;4.658;2024-03-23T11:53:11;4.12;;;3.06;;
86241;SDS011;76911;51.784;4.658;2024-03-23T11:58:39;4.16;;;2.93;;
86241;SDS011;76911;51.784;4.658;2024-03-23T12:01:05;4.71;;;3.24;;
86241;SDS011;76911;51.784;4.658;2024-03-23T12:03:35;5.78;;;3.87;;
86241;SDS011;76911;51.784;4.658;2024-03-23T12:06:01;5.74;;;3.82;;
86241;SDS011;76911;51.784;4.658;2024-03-23T12:08:32;5.76;;;3.83;;
86241;SDS011;76911;51.784;4.658;2024-03-23T12:11:11;4.99;;;3.28;;
86241;SDS011;76911;51.784;4.658;2024-03-23T12:13:39;6.11;;;3.98;;
86241;SDS011;76911;51.784;4.658;2024-03-23T12:16:18;6.07;;;3.98;;
86241;SDS011;76911;51.784;4.658;2024-03-23T12:18:48;6.37;;;4.18;;
86241;SDS011;76911;51.784;4.658;2024-03-23T12:21:16;5.81;;;3.87;;
86241;SDS011;76911;51.784;4.658;2024-03-23T12:23:43;5.55;;;3.72;;
86241;SDS011;76911;51.784;4.658;2024-03-23T12:26:13;5.78;;;3.85;;
86241;SDS011;76911;51.784;4.658;2024-03-23T12:28:39;5.91;;;3.96;;
86241;SDS011;76911;51.784;4.658;2024-03-23T12:31:05;6.16;;;4.11;;
86241;SDS011;76911;51.784;4.658;2024-03-23T12:33:33;5.76;;;3.85;;
86241;SDS011;76911;51.784;4.658;2024-03-23T12:35:58;5.08;;;3.42;;
86241;SDS011;76911;51.784;4.658;2024-03-23T12:38:24;4.62;;;3.12;;
86241;SDS011;76911;51.784;4.658;2024-03-23T12:40:49;5.06;;;3.38;;
86241;SDS011;76911;51.784;4.658;2024-03-23T12:43:16;6.25;;;4.26;;
86241;SDS011;76911;51.784;4.658;2024-03-23T12:45:45;5.65;;;3.86;;
86241;SDS011;76911;51.784;4.658;2024-03-23T12:48:11;5.74;;;3.92;;
86241;SDS011;76911;51.784;4.658;2024-03-23T12:50:36;5.40;;;3.69;;
86241;SDS011;76911;51.784;4.658;2024-03-23T12:53:02;4.96;;;3.39;;
86241;SDS011;76911;51.784;4.658;2024-03-23T12:55:28;4.31;;;2.91;;
86241;SDS011;76911;51.784;4.658;2024-03-23T12:57:54;4.33;;;2.93;;
86241;SDS011;76911;51.784;4.658;2024-03-23T13:00:19;5.28;;;3.59;;
86241;SDS011;76911;51.784;4.658;2024-03-23T13:02:45;4.86;;;3.25;;
86241;SDS011;76911;51.784;4.658;2024-03-23T13:05:10;4.75;;;3.15;;
86241;SDS011;76911;51.784;4.658;2024-03-23T13:07:36;5.78;;;3.85;;
86241;SDS011;76911;51.784;4.658;2024-03-23T13:10:03;6.15;;;4.14;;
86241;SDS011;76911;51.784;4.658;2024-03-23T13:12:29;5.06;;;3.45;;
86241;SDS011;76911;51.784;4.658;2024-03-23T13:14:56;9.29;;;6.41;;
86241;SDS011;76911;51.784;4.658;2024-03-23T13:17:21;4.35;;;3.08;;
86241;SDS011;76911;51.784;4.658;2024-03-23T13:19:46;4.31;;;3.09;;
86241;SDS011;76911;51.784;4.658;2024-03-23T13:22:12;4.46;;;3.13;;
86241;SDS011;76911;51.784;4.658;2024-03-23T13:24:37;4.95;;;3.43;;
86241;SDS011;76911;51.784;4.658;2024-03-23T13:27:04;4.58;;;3.18;;
86241;SDS011;76911;51.784;4.658;2024-03-23T13:29:32;4.97;;;3.45;;
86241;SDS011;76911;51.784;4.658;2024-03-23T13:31:58;5.27;;;3.61;;
86241;SDS011;76911;51.784;4.658;2024-03-23T13:34:24;5.60;;;3.81;;
86241;SDS011;76911;51.784;4.658;2024-03-23T13:36:49;4.69;;;3.21;;
86241;SDS011;76911;51.784;4.658;2024-03-23T13:39:14;4.63;;;3.17;;
86241;SDS011;76911;51.784;4.658;2024-03-23T13:41:41;5.02;;;3.39;;
86241;SDS011;76911;51.784;4.658;2024-03-23T13:44:09;5.03;;;3.35;;
86241;SDS011;76911;51.784;4.658;2024-03-23T13:46:36;5.15;;;3.36;;
86241;SDS011;76911;51.784;4.658;2024-03-23T13:49:02;4.84;;;3.20;;
86241;SDS011;76911;51.784;4.658;2024-03-23T13:51:28;5.49;;;3.62;;
86241;SDS011;76911;51.784;4.658;2024-03-23T13:53:54;4.43;;;2.93;;
86241;SDS011;76911;51.784;4.658;2024-03-23T13:56:21;4.18;;;2.82;;
86241;SDS011;76911;51.784;4.658;2024-03-23T13:58:49;4.43;;;2.95;;
86241;SDS011;76911;51.784;4.658;2024-03-23T14:01:15;4.47;;;2.98;;
86241;SDS011;76911;51.784;4.658;2024-03-23T14:03:42;4.15;;;2.79;;
86241;SDS011;76911;51.784;4.658;2024-03-23T14:06:08;3.56;;;2.40;;
86241;SDS011;76911;51.784;4.658;2024-03-23T14:08:35;3.65;;;2.46;;
86241;SDS011;76911;51.784;4.658;2024-03-23T14:11:04;4.01;;;2.70;;
86241;SDS011;76911;51.784;4.658;2024-03-23T14:13:30;3.83;;;2.56;;
86241;SDS011;76911;51.784;4.658;2024-03-23T14:15:56;4.03;;;2.67;;
86241;SDS011;76911;51.784;4.658;2024-03-23T14:18:22;2.64;;;1.77;;
86241;SDS011;76911;51.784;4.658;2024-03-23T14:20:57;1.76;;;1.19;;
86241;SDS011;76911;51.784;4.658;2024-03-23T14:23:25;2.22;;;1.48;;
86241;SDS011;76911;51.784;4.658;2024-03-23T14:25:54;2.69;;;1.81;;
86241;SDS011;76911;51.784;4.658;2024-03-23T14:28:20;1.77;;;1.19;;
86241;SDS011;76911;51.784;4.658;2024-03-23T14:30:47;1.90;;;1.28;;
86241;SDS011;76911;51.784;4.658;2024-03-23T14:33:12;1.44;;;0.99;;
86241;SDS011;76911;51.784;4.658;2024-03-23T14:35:38;1.06;;;0.74;;
86241;SDS011;76911;51.784;4.658;2024-03-23T14:38:03;2.22;;;1.56;;
86241;SDS011;76911;51.784;4.658;2024-03-23T14:40:29;2.01;;;1.42;;
86241;SDS011;76911;51.784;4.658;2024-03-23T14:42:54;1.88;;;1.33;;
86241;SDS011;76911;51.784;4.658;2024-03-23T14:45:23;1.59;;;1.14;;
86241;SDS011;76911;51.784;4.658;2024-03-23T14:47:52;2.26;;;1.63;;
86241;SDS011;76911;51.784;4.658;2024-03-23T14:50:18;2.01;;;1.44;;
86241;SDS011;76911;51.784;4.658;2024-03-23T14:52:45;1.73;;;1.23;;
86241;SDS011;76911;51.784;4.658;2024-03-23T14:55:11;2.26;;;1.59;;
86241;SDS011;76911;51.784;4.658;2024-03-23T14:57:37;3.13;;;2.21;;
86241;SDS011;76911;51.784;4.658;2024-03-23T15:00:07;3.05;;;2.21;;
86241;SDS011;76911;51.784;4.658;2024-03-23T15:02:35;2.66;;;1.96;;
86241;SDS011;76911;51.784;4.658;2024-03-23T15:05:04;2.66;;;1.96;;
86241;SDS011;76911;51.784;4.658;2024-03-23T15:07:33;2.27;;;1.64;;
86241;SDS011;76911;51.784;4.658;2024-03-23T15:09:58;1.75;;;1.27;;
86241;SDS011;76911;51.784;4.658;2024-03-23T15:12:24;1.65;;;1.20;;
86241;SDS011;76911;51.784;4.658;2024-03-23T15:14:49;1.36;;;0.98;;
86241;SDS011;76911;51.784;4.658;2024-03-23T15:17:14;1.12;;;0.81;;
86241;SDS011;76911;51.784;4.658;2024-03-23T15:19:40;1.10;;;0.79;;
86241;SDS011;76911;51.784;4.658;2024-03-23T15:22:07;1.30;;;0.94;;
86241;SDS011;76911;51.784;4.658;2024-03-23T15:24:34;1.31;;;0.95;;
86241;SDS011;76911;51.784;4.658;2024-03-23T15:27:01;1.18;;;0.85;;
86241;SDS011;76911;51.784;4.658;2024-03-23T15:29:26;1.09;;;0.79;;
86241;SDS011;76911;51.784;4.658;2024-03-23T15:31:51;1.18;;;0.87;;
86241;SDS011;76911;51.784;4.658;2024-03-23T15:34:20;1.36;;;0.98;;
86241;SDS011;76911;51.784;4.658;2024-03-23T15:36:49;1.29;;;0.93;;
86241;SDS011;76911;51.784;4.658;2024-03-23T15:39:16;1.29;;;0.94;;
86241;SDS011;76911;51.784;4.658;2024-03-23T15:41:45;1.33;;;0.98;;
86241;SDS011;76911;51.784;4.658;2024-03-23T15:44:11;1.46;;;1.07;;
86241;SDS011;76911;51.784;4.658;2024-03-23T15:46:37;2.06;;;1.53;;
86241;SDS011;76911;51.784;4.658;2024-03-23T15:49:03;1.93;;;1.44;;
86241;SDS011;76911;51.784;4.658;2024-03-23T15:51:29;2.08;;;1.54;;
86241;SDS011;76911;51.784;4.658;2024-03-23T15:53:58;2.24;;;1.65;;
86241;SDS011;76911;51.784;4.658;2024-03-23T15:56:24;1.93;;;1.43;;
86241;SDS011;76911;51.784;4.658;2024-03-23T15:58:50;2.60;;;1.93;;
86241;SDS011;76911;51.784;4.658;2024-03-23T16:01:30;2.14;;;1.60;;
86241;SDS011;76911;51.784;4.658;2024-03-23T16:03:57;2.18;;;1.65;;